Time,TemperatureF,DewpointF,PressureIn,WindDirection,WindDirectionDegrees,WindSpeedMPH,WindSpeedGustMPH,Humidity,HourlyPrecipIn,Conditions,Clouds,dailyrainin,SoftwareType,DateUTC
2013-09-08 00:04:00,73.8,52.3,29.82,ESE,119,0.0,0.0,47,0.00,,,0.00,WUHU216DAVISVP2,2013-09-08 07:04:00,
2013-09-08 00:09:00,73.6,52.7,29.82,ESE,119,0.0,0.0,48,0.00,,,0.00,WUHU216DAVISVP2,2013-09-08 07:09:00,
2013-09-08 00:14:00,73.4,52.6,29.82,ESE,119,0.0,0.0,48,0.00,,,0.00,WUHU216DAVISVP2,2013-09-08 07:14:00,
2013-09-08 00:19:00,73.1,52.3,29.82,ESE,119,0.0,0.0,48,0.00,,,0.00,WUHU216DAVISVP2,2013-09-08 07:19:00,
2013-09-08 00:24:00,73.0,52.2,29.82,ESE,119,0.0,0.0,48,0.00,,,0.00,WUHU216DAVISVP2,2013-09-08 07:24:00,
2013-09-08 00:29:00,72.7,52.5,29.82,ESE,119,0.0,0.0,49,0.00,,,0.00,WUHU216DAVISVP2,2013-09-08 07:29:00,
2013-09-08 00:34:00,72.4,52.8,29.82,ESE,119,0.0,0.0,50,0.00,,,0.00,WUHU216DAVISVP2,2013-09-08 07:34:00,
2013-09-08 00:39:00,72.1,52.5,29.82,ESE,119,0.0,0.0,50,0.00,,,0.00,WUHU216DAVISVP2,2013-09-08 07:39:00,
2013-09-08 00:44:00,72.1,52.4,29.82,ESE,119,0.0,0.0,50,0.00,,,0.00,WUHU216DAVISVP2,2013-09-08 07:44:00,
2013-09-08 00:49:00,72.0,51.8,29.82,ESE,119,0.0,0.0,49,0.00,,,0.00,WUHU216DAVISVP2,2013-09-08 07:49:00,
2013-09-08 00:54:00,72.0,52.4,29.81,ESE,119,0.0,0.0,50,0.00,,,0.00,WUHU216DAVISVP2,2013-09-08 07:54:00,
2013-09-08 00:59:00,72.0,51.3,29.82,ESE,119,0.0,0.0,48,0.00,,,0.00,WUHU216DAVISVP2,2013-09-08 07:59:00,
2013-09-08 01:05:00,71.9,52.9,29.81,ESE,119,0.0,0.0,51,0.00,,,0.00,WUHU216DAVISVP2,2013-09-08 08:05:00,
2013-09-08 01:10:00,71.9,51.8,29.81,ESE,119,0.0,0.0,49,0.00,,,0.00,WUHU216DAVISVP2,2013-09-08 08:10:00,
2013-09-08 01:15:00,71.7,51.0,29.82,ESE,119,0.0,0.0,48,0.00,,,0.00,WUHU216DAVISVP2,2013-09-08 08:15:00,
2013-09-08 01:20:00,71.5,51.9,29.81,ESE,119,0.0,0.0,50,0.00,,,0.00,WUHU216DAVISVP2,2013-09-08 08:20:00,
2013-09-08 01:25:00,71.3,51.2,29.81,ESE,119,0.0,0.0,49,0.00,,,0.00,WUHU216DAVISVP2,2013-09-08 08:25:00,
2013-09-08 01:30:00,71.0,52.0,29.81,ESE,119,0.0,0.0,51,0.00,,,0.00,WUHU216DAVISVP2,2013-09-08 08:30:00,
2013-09-08 01:35:00,70.8,51.9,29.81,ESE,119,0.0,0.0,51,0.00,,,0.00,WUHU216DAVISVP2,2013-09-08 08:35:00,
2013-09-08 01:40:00,70.7,52.3,29.81,ESE,119,0.0,0.0,52,0.00,,,0.00,WUHU216DAVISVP2,2013-09-08 08:40:00,
2013-09-08 01:45:00,70.8,52.9,29.81,ESE,119,0.0,0.0,53,0.00,,,0.00,WUHU216DAVISVP2,2013-09-08 08:45:00,
2013-09-08 01:50:00,70.8,52.9,29.81,ESE,119,0.0,0.0,53,0.00,,,0.00,WUHU216DAVISVP2,2013-09-08 08:50:00,
2013-09-08 01:55:00,70.7,53.4,29.81,ESE,119,0.0,0.0,54,0.00,,,0.00,WUHU216DAVISVP2,2013-09-08 08:55:00,
2013-09-08 02:00:00,70.5,53.7,29.81,ESE,119,0.0,0.0,55,0.00,,,0.00,WUHU216DAVISVP2,2013-09-08 09:00:00,
2013-09-08 02:05:00,70.3,54.5,29.81,ESE,119,0.0,0.0,57,0.00,,,0.00,WUHU216DAVISVP2,2013-09-08 09:05:00,
2013-09-08 02:10:00,70.2,54.4,29.81,ESE,119,0.0,0.0,57,0.00,,,0.00,WUHU216DAVISVP2,2013-09-08 09:10:00,
2013-09-08 02:15:00,70.0,54.5,29.81,ESE,119,0.0,0.0,58,0.00,,,0.00,WUHU216DAVISVP2,2013-09-08 09:15:00,
2013-09-08 02:20:00,69.8,54.4,29.81,ESE,119,0.0,0.0,58,0.00,,,0.00,WUHU216DAVISVP2,2013-09-08 09:20:00,
2013-09-08 02:25:00,69.8,54.4,29.81,ESE,119,0.0,0.0,58,0.00,,,0.00,WUHU216DAVISVP2,2013-09-08 09:25:00,
2013-09-08 02:30:00,69.8,54.8,29.81,ESE,119,0.0,0.0,59,0.00,,,0.00,WUHU216DAVISVP2,2013-09-08 09:30:00,
2013-09-08 02:35:00,69.7,54.7,29.81,ESE,119,0.0,0.0,59,0.00,,,0.00,WUHU216DAVISVP2,2013-09-08 09:35:00,
2013-09-08 02:40:00,69.6,54.2,29.81,ESE,119,0.0,0.0,58,0.00,,,0.00,WUHU216DAVISVP2,2013-09-08 09:40:00,
2013-09-08 02:45:00,69.5,54.1,29.81,ESE,119,0.0,0.0,58,0.00,,,0.00,WUHU216DAVISVP2,2013-09-08 09:45:00,
2013-09-08 02:50:00,69.4,54.4,29.81,ESE,119,0.0,0.0,59,0.00,,,0.00,WUHU216DAVISVP2,2013-09-08 09:50:00,
2013-09-08 02:55:00,69.3,54.4,29.81,ESE,119,0.0,0.0,59,0.00,,,0.00,WUHU216DAVISVP2,2013-09-08 09:55:00,
2013-09-08 03:00:00,69.2,54.9,29.81,ESE,119,0.0,0.0,60,0.00,,,0.00,WUHU216DAVISVP2,2013-09-08 10:00:00,
2013-09-08 03:05:00,69.2,54.9,29.81,ESE,119,0.0,0.0,60,0.00,,,0.00,WUHU216DAVISVP2,2013-09-08 10:05:00,
2013-09-08 03:10:00,69.2,54.9,29.81,ESE,119,0.0,0.0,60,0.00,,,0.00,WUHU216DAVISVP2,2013-09-08 10:10:00,
2013-09-08 03:15:00,69.0,54.1,29.81,ESE,119,0.0,0.0,59,0.00,,,0.00,WUHU216DAVISVP2,2013-09-08 10:15:00,
2013-09-08 03:20:00,69.0,54.7,29.81,ESE,119,0.0,0.0,60,0.00,,,0.00,WUHU216DAVISVP2,2013-09-08 10:20:00,
2013-09-08 03:25:00,68.9,55.1,29.80,ESE,119,0.0,0.0,61,0.00,,,0.00,WUHU216DAVISVP2,2013-09-08 10:25:00,
2013-09-08 03:30:00,68.8,55.4,29.80,ESE,119,0.0,0.0,62,0.00,,,0.00,WUHU216DAVISVP2,2013-09-08 10:30:00,
2013-09-08 03:35:00,68.8,55.4,29.80,ESE,119,0.0,0.0,62,0.00,,,0.00,WUHU216DAVISVP2,2013-09-08 10:35:00,
2013-09-08 03:40:00,68.8,55.7,29.80,ESE,119,0.0,0.0,63,0.00,,,0.00,WUHU216DAVISVP2,2013-09-08 10:40:00,
2013-09-08 03:45:00,68.8,55.2,29.80,ESE,119,0.0,0.0,62,0.00,,,0.00,WUHU216DAVISVP2,2013-09-08 10:45:00,
2013-09-08 03:50:00,68.7,55.8,29.80,ESE,119,0.0,0.0,63,0.00,,,0.00,WUHU216DAVISVP2,2013-09-08 10:50:00,
2013-09-08 03:55:00,68.6,55.7,29.80,ESE,119,0.0,0.0,63,0.00,,,0.00,WUHU216DAVISVP2,2013-09-08 10:55:00,
2013-09-08 04:00:00,68.5,55.6,29.80,ESE,119,0.0,0.0,63,0.00,,,0.00,WUHU216DAVISVP2,2013-09-08 11:00:00,
2013-09-08 04:05:00,68.6,55.2,29.80,ESE,119,0.0,0.0,62,0.00,,,0.00,WUHU216DAVISVP2,2013-09-08 11:05:00,
2013-09-08 04:10:00,68.6,54.8,29.80,ESE,119,0.0,0.0,61,0.00,,,0.00,WUHU216DAVISVP2,2013-09-08 11:10:00,
2013-09-08 04:15:00,68.5,55.1,29.80,ESE,119,0.0,0.0,62,0.00,,,0.00,WUHU216DAVISVP2,2013-09-08 11:15:00,
2013-09-08 04:21:00,68.5,55.1,29.80,ESE,119,0.0,0.0,62,0.00,,,0.00,WUHU216DAVISVP2,2013-09-08 11:21:00,
2013-09-08 04:26:00,68.4,54.6,29.80,ESE,119,0.0,0.0,61,0.00,,,0.00,WUHU216DAVISVP2,2013-09-08 11:26:00,
2013-09-08 04:31:00,68.3,54.3,29.80,ESE,119,0.0,0.0,61,0.00,,,0.00,WUHU216DAVISVP2,2013-09-08 11:31:00,
2013-09-08 04:36:00,68.1,54.1,29.80,ESE,119,0.0,0.0,61,0.00,,,0.00,WUHU216DAVISVP2,2013-09-08 11:36:00,
2013-09-08 04:41:00,67.9,54.0,29.80,ESE,119,0.0,0.0,61,0.00,,,0.00,WUHU216DAVISVP2,2013-09-08 11:41:00,
2013-09-08 04:46:00,67.7,53.8,29.80,ESE,119,0.0,0.0,61,0.00,,,0.00,WUHU216DAVISVP2,2013-09-08 11:46:00,
2013-09-08 04:51:00,67.5,54.5,29.80,ESE,119,0.0,0.0,63,0.00,,,0.00,WUHU216DAVISVP2,2013-09-08 11:51:00,
2013-09-08 04:56:00,67.4,54.5,29.80,ESE,119,0.0,0.0,63,0.00,,,0.00,WUHU216DAVISVP2,2013-09-08 11:56:00,
2013-09-08 05:01:00,67.3,54.4,29.80,ESE,119,0.0,0.0,63,0.00,,,0.00,WUHU216DAVISVP2,2013-09-08 12:01:00,
2013-09-08 05:06:00,67.1,54.3,29.80,ESE,119,0.0,0.0,63,0.00,,,0.00,WUHU216DAVISVP2,2013-09-08 12:06:00,
2013-09-08 05:11:00,67.0,54.6,29.80,ESE,119,0.0,0.0,64,0.00,,,0.00,WUHU216DAVISVP2,2013-09-08 12:11:00,
2013-09-08 05:16:00,66.9,54.1,29.80,ESE,119,0.0,0.0,63,0.00,,,0.00,WUHU216DAVISVP2,2013-09-08 12:16:00,
2013-09-08 05:21:00,66.9,54.1,29.80,ESE,119,0.0,0.0,63,0.00,,,0.00,WUHU216DAVISVP2,2013-09-08 12:21:00,
2013-09-08 05:26:00,66.8,54.0,29.80,ESE,119,0.0,0.0,63,0.00,,,0.00,WUHU216DAVISVP2,2013-09-08 12:26:00,
2013-09-08 05:31:00,66.7,54.3,29.80,ESE,119,0.0,0.0,64,0.00,,,0.00,WUHU216DAVISVP2,2013-09-08 12:31:00,
2013-09-08 05:36:00,66.6,53.8,29.80,ESE,119,0.0,0.0,63,0.00,,,0.00,WUHU216DAVISVP2,2013-09-08 12:36:00,
2013-09-08 05:41:00,66.5,54.1,29.80,ESE,119,0.0,0.0,64,0.00,,,0.00,WUHU216DAVISVP2,2013-09-08 12:41:00,
2013-09-08 05:46:00,66.3,54.4,29.80,ESE,119,0.0,0.0,65,0.00,,,0.00,WUHU216DAVISVP2,2013-09-08 12:46:00,
2013-09-08 05:51:00,66.1,53.7,29.81,ESE,119,0.0,0.0,64,0.00,,,0.00,WUHU216DAVISVP2,2013-09-08 12:51:00,
2013-09-08 05:56:00,65.9,53.5,29.81,ESE,119,0.0,0.0,64,0.00,,,0.00,WUHU216DAVISVP2,2013-09-08 12:56:00,
2013-09-08 06:01:00,65.8,53.5,29.81,ESE,119,0.0,0.0,64,0.00,,,0.00,WUHU216DAVISVP2,2013-09-08 13:01:00,
2013-09-08 06:06:00,65.6,53.3,29.81,ESE,119,0.0,0.0,64,0.00,,,0.00,WUHU216DAVISVP2,2013-09-08 13:06:00,
2013-09-08 06:11:00,65.6,53.3,29.81,ESE,119,0.0,0.0,64,0.00,,,0.00,WUHU216DAVISVP2,2013-09-08 13:11:00,
2013-09-08 06:16:00,65.5,53.6,29.81,ESE,119,0.0,0.0,65,0.00,,,0.00,WUHU216DAVISVP2,2013-09-08 13:16:00,
2013-09-08 06:21:00,65.4,53.5,29.81,ESE,119,0.0,0.0,65,0.00,,,0.00,WUHU216DAVISVP2,2013-09-08 13:21:00,
2013-09-08 06:26:00,65.3,53.4,29.81,ESE,119,0.0,0.0,65,0.00,,,0.00,WUHU216DAVISVP2,2013-09-08 13:26:00,
2013-09-08 06:31:00,65.2,53.7,29.81,ESE,119,0.0,0.0,66,0.00,,,0.00,WUHU216DAVISVP2,2013-09-08 13:31:00,
2013-09-08 06:36:00,65.1,53.6,29.81,SE,124,0.0,0.0,66,0.00,,,0.00,WUHU216DAVISVP2,2013-09-08 13:36:00,
2013-09-08 06:41:00,65.0,53.5,29.81,SE,124,0.0,0.0,66,0.00,,,0.00,WUHU216DAVISVP2,2013-09-08 13:41:00,
2013-09-08 06:46:00,64.8,53.3,29.81,SE,124,0.0,0.0,66,0.00,,,0.00,WUHU216DAVISVP2,2013-09-08 13:46:00,
2013-09-08 06:51:00,64.7,53.7,29.82,SE,124,0.0,0.0,67,0.00,,,0.00,WUHU216DAVISVP2,2013-09-08 13:51:00,
2013-09-08 06:56:00,64.7,54.1,29.82,SE,124,0.0,0.0,68,0.00,,,0.00,WUHU216DAVISVP2,2013-09-08 13:56:00,
2013-09-08 07:01:00,64.7,53.9,29.82,SE,124,0.0,0.0,68,0.00,,,0.00,WUHU216DAVISVP2,2013-09-08 14:01:00,
2013-09-08 07:06:00,64.8,54.2,29.82,SE,124,0.0,0.0,68,0.00,,,0.00,WUHU216DAVISVP2,2013-09-08 14:06:00,
2013-09-08 07:11:00,64.9,54.1,29.82,SE,124,0.0,0.0,68,0.00,,,0.00,WUHU216DAVISVP2,2013-09-08 14:11:00,
2013-09-08 07:16:00,65.0,54.2,29.82,SE,124,0.0,0.0,68,0.00,,,0.00,WUHU216DAVISVP2,2013-09-08 14:16:00,
2013-09-08 07:21:00,65.3,54.9,29.82,SE,124,0.0,0.0,69,0.00,,,0.00,WUHU216DAVISVP2,2013-09-08 14:21:00,
2013-09-08 07:26:00,65.6,55.2,29.82,SE,124,0.0,0.0,69,0.00,,,0.00,WUHU216DAVISVP2,2013-09-08 14:26:00,
2013-09-08 07:31:00,65.8,55.5,29.82,SE,124,0.0,0.0,69,0.00,,,0.00,WUHU216DAVISVP2,2013-09-08 14:31:00,
2013-09-08 07:36:00,66.4,55.7,29.82,SE,124,0.0,0.0,68,0.00,,,0.00,WUHU216DAVISVP2,2013-09-08 14:36:00,
2013-09-08 07:41:00,67.0,55.3,29.82,SE,124,0.0,0.0,66,0.00,,,0.00,WUHU216DAVISVP2,2013-09-08 14:41:00,
2013-09-08 07:46:00,67.3,55.5,29.82,SE,124,0.0,0.0,66,0.00,,,0.00,WUHU216DAVISVP2,2013-09-08 14:46:00,
2013-09-08 07:51:00,67.6,55.0,29.82,SE,124,0.0,1.0,64,0.00,,,0.00,WUHU216DAVISVP2,2013-09-08 14:51:00,
2013-09-08 07:56:00,68.3,55.0,29.82,ENE,62,0.0,1.0,62,0.00,,,0.00,WUHU216DAVISVP2,2013-09-08 14:56:00,
2013-09-08 08:01:00,68.9,54.9,29.82,NE,47,0.0,2.0,61,0.00,,,0.00,WUHU216DAVISVP2,2013-09-08 15:01:00,
2013-09-08 08:06:00,69.8,54.5,29.82,NE,47,1.0,2.0,58,0.00,,,0.00,WUHU216DAVISVP2,2013-09-08 15:06:00,
2013-09-08 08:11:00,70.4,54.6,29.82,NE,47,0.0,2.0,57,0.00,,,0.00,WUHU216DAVISVP2,2013-09-08 15:11:00,
2013-09-08 08:16:00,71.1,54.8,29.82,NE,47,0.0,2.0,56,0.00,,,0.00,WUHU216DAVISVP2,2013-09-08 15:16:00,
2013-09-08 08:22:00,71.8,54.9,29.82,NE,47,0.0,2.0,55,0.00,,,0.00,WUHU216DAVISVP2,2013-09-08 15:22:00,
2013-09-08 08:27:00,72.6,55.7,29.82,NNE,27,0.0,2.0,55,0.00,,,0.00,WUHU216DAVISVP2,2013-09-08 15:27:00,
2013-09-08 08:32:00,73.8,55.7,29.82,North,360,1.0,2.0,53,0.00,,,0.00,WUHU216DAVISVP2,2013-09-08 15:32:00,
2013-09-08 08:37:00,74.9,55.7,29.82,WNW,292,2.0,3.0,51,0.00,,,0.00,WUHU216DAVISVP2,2013-09-08 15:37:00,
2013-09-08 08:42:00,76.0,55.5,29.82,WNW,293,0.0,3.0,49,0.00,,,0.00,WUHU216DAVISVP2,2013-09-08 15:42:00,
2013-09-08 08:47:00,77.4,55.0,29.82,WNW,293,1.0,3.0,46,0.00,,,0.00,WUHU216DAVISVP2,2013-09-08 15:47:00,
2013-09-08 08:52:00,78.5,56.0,29.82,WNW,293,0.0,3.0,46,0.00,,,0.00,WUHU216DAVISVP2,2013-09-08 15:52:00,
2013-09-08 08:57:00,79.3,54.8,29.82,NNW,348,3.0,3.0,43,0.00,,,0.00,WUHU216DAVISVP2,2013-09-08 15:57:00,
2013-09-08 09:02:00,80.2,54.3,29.82,NNW,348,0.0,3.0,41,0.00,,,0.00,WUHU216DAVISVP2,2013-09-08 16:02:00,
2013-09-08 09:07:00,81.3,54.6,29.82,NNW,348,0.0,3.0,40,0.00,,,0.00,WUHU216DAVISVP2,2013-09-08 16:07:00,
2013-09-08 09:12:00,82.4,55.0,29.82,WNW,296,0.0,3.0,39,0.00,,,0.00,WUHU216DAVISVP2,2013-09-08 16:12:00,
2013-09-08 09:17:00,83.1,54.0,29.82,WNW,298,1.0,2.0,37,0.00,,,0.00,WUHU216DAVISVP2,2013-09-08 16:17:00,
2013-09-08 09:22:00,84.0,54.1,29.82,NNW,340,0.0,2.0,36,0.00,,,0.00,WUHU216DAVISVP2,2013-09-08 16:22:00,
2013-09-08 09:27:00,84.9,54.9,29.82,NNW,341,1.0,2.0,36,0.00,,,0.00,WUHU216DAVISVP2,2013-09-08 16:27:00,
2013-09-08 09:32:00,85.4,54.5,29.82,ENE,74,1.0,3.0,35,0.00,,,0.00,WUHU216DAVISVP2,2013-09-08 16:32:00,
2013-09-08 09:37:00,85.7,54.0,29.82,NE,54,2.0,3.0,34,0.00,,,0.00,WUHU216DAVISVP2,2013-09-08 16:37:00,
2013-09-08 09:42:00,86.4,53.8,29.82,ENE,78,2.0,3.0,33,0.00,,,0.00,WUHU216DAVISVP2,2013-09-08 16:42:00,
2013-09-08 09:47:00,86.9,53.5,29.82,ENE,64,2.0,3.0,32,0.00,,,0.00,WUHU216DAVISVP2,2013-09-08 16:47:00,
2013-09-08 09:52:00,87.3,53.7,29.82,NE,34,0.0,3.0,32,0.00,,,0.00,WUHU216DAVISVP2,2013-09-08 16:52:00,
2013-09-08 09:57:00,88.0,52.7,29.82,SSE,148,0.0,3.0,30,0.00,,,0.00,WUHU216DAVISVP2,2013-09-08 16:57:00,
2013-09-08 10:02:00,88.4,53.0,29.82,NNE,28,3.0,4.0,30,0.00,,,0.00,WUHU216DAVISVP2,2013-09-08 17:02:00,
2013-09-08 10:07:00,88.5,52.1,29.82,ENE,75,1.0,5.0,29,0.00,,,0.00,WUHU216DAVISVP2,2013-09-08 17:07:00,
2013-09-08 10:12:00,88.7,51.3,29.82,ENE,63,1.0,5.0,28,0.00,,,0.00,WUHU216DAVISVP2,2013-09-08 17:12:00,
2013-09-08 10:17:00,88.9,51.5,29.82,NE,46,1.0,4.0,28,0.00,,,0.00,WUHU216DAVISVP2,2013-09-08 17:17:00,
2013-09-08 10:22:00,89.3,51.8,29.82,ESE,118,1.0,4.0,28,0.00,,,0.00,WUHU216DAVISVP2,2013-09-08 17:22:00,
2013-09-08 10:27:00,89.7,52.2,29.82,SE,127,2.0,4.0,28,0.00,,,0.00,WUHU216DAVISVP2,2013-09-08 17:27:00,
2013-09-08 10:32:00,90.2,51.6,29.82,SE,124,3.0,4.0,27,0.00,,,0.00,WUHU216DAVISVP2,2013-09-08 17:32:00,
2013-09-08 10:37:00,90.7,53.0,29.82,ESE,121,0.0,4.0,28,0.00,,,0.00,WUHU216DAVISVP2,2013-09-08 17:37:00,
2013-09-08 10:42:00,91.2,49.3,29.81,SSE,152,1.0,4.0,24,0.00,,,0.00,WUHU216DAVISVP2,2013-09-08 17:42:00,
2013-09-08 10:47:00,91.6,51.9,29.81,NE,55,2.0,5.0,26,0.00,,,0.00,WUHU216DAVISVP2,2013-09-08 17:47:00,
2013-09-08 10:52:00,92.0,51.1,29.81,ESE,113,2.0,6.0,25,0.00,,,0.00,WUHU216DAVISVP2,2013-09-08 17:52:00,
2013-09-08 10:57:00,92.2,50.2,29.81,SE,130,6.0,7.0,24,0.00,,,0.00,WUHU216DAVISVP2,2013-09-08 17:57:00,
2013-09-08 11:02:00,92.4,50.3,29.81,ENE,62,2.0,7.0,24,0.00,,,0.00,WUHU216DAVISVP2,2013-09-08 18:02:00,
2013-09-08 11:07:00,93.1,49.8,29.81,ENE,77,1.0,7.0,23,0.00,,,0.00,WUHU216DAVISVP2,2013-09-08 18:07:00,
2013-09-08 11:12:00,93.8,49.2,29.80,East,84,2.0,7.0,22,0.00,,,0.00,WUHU216DAVISVP2,2013-09-08 18:12:00,
2013-09-08 11:17:00,94.4,49.7,29.80,East,84,2.0,6.0,22,0.00,,,0.00,WUHU216DAVISVP2,2013-09-08 18:17:00,
2013-09-08 11:22:00,94.4,49.7,29.80,ENE,61,0.0,6.0,22,0.00,,,0.00,WUHU216DAVISVP2,2013-09-08 18:22:00,
2013-09-08 11:27:00,94.3,49.6,29.80,SE,131,4.0,6.0,22,0.00,,,0.00,WUHU216DAVISVP2,2013-09-08 18:27:00,
2013-09-08 11:32:00,94.1,50.6,29.80,East,100,1.0,6.0,23,0.00,,,0.00,WUHU216DAVISVP2,2013-09-08 18:32:00,
2013-09-08 11:37:00,94.3,51.9,29.80,NE,40,2.0,6.0,24,0.00,,,0.00,WUHU216DAVISVP2,2013-09-08 18:37:00,
2013-09-08 11:42:00,94.6,52.2,29.80,NE,51,4.0,7.0,24,0.00,,,0.00,WUHU216DAVISVP2,2013-09-08 18:42:00,
2013-09-08 11:47:00,94.5,51.0,29.80,NE,45,4.0,7.0,23,0.00,,,0.00,WUHU216DAVISVP2,2013-09-08 18:47:00,
2013-09-08 11:52:00,94.6,51.0,29.80,SE,128,3.0,8.0,23,0.00,,,0.00,WUHU216DAVISVP2,2013-09-08 18:52:00,
2013-09-08 11:57:00,95.2,50.4,29.79,ENE,63,1.0,8.0,22,0.00,,,0.00,WUHU216DAVISVP2,2013-09-08 18:57:00,
2013-09-08 12:03:00,95.7,50.8,29.79,SSE,147,0.0,8.0,22,0.00,,,0.00,WUHU216DAVISVP2,2013-09-08 19:03:00,
2013-09-08 12:08:00,95.9,49.7,29.79,ESE,115,2.0,6.0,21,0.00,,,0.00,WUHU216DAVISVP2,2013-09-08 19:08:00,
2013-09-08 12:13:00,96.2,51.2,29.79,East,90,5.0,8.0,22,0.00,,,0.00,WUHU216DAVISVP2,2013-09-08 19:13:00,
2013-09-08 12:18:00,96.4,50.1,29.79,NE,36,4.0,8.0,21,0.00,,,0.00,WUHU216DAVISVP2,2013-09-08 19:18:00,
2013-09-08 12:23:00,96.6,51.5,29.79,SE,126,2.0,11.0,22,0.00,,,0.00,WUHU216DAVISVP2,2013-09-08 19:23:00,
2013-09-08 12:28:00,97.1,53.1,29.79,SE,134,2.0,11.0,23,0.00,,,0.00,WUHU216DAVISVP2,2013-09-08 19:28:00,
2013-09-08 12:33:00,97.1,53.1,29.78,SE,135,6.0,11.0,23,0.00,,,0.00,WUHU216DAVISVP2,2013-09-08 19:33:00,
2013-09-08 12:38:00,97.1,53.1,29.78,ESE,107,2.0,8.0,23,0.00,,,0.00,WUHU216DAVISVP2,2013-09-08 19:38:00,
2013-09-08 12:43:00,97.2,52.0,29.78,ESE,105,2.0,8.0,22,0.00,,,0.00,WUHU216DAVISVP2,2013-09-08 19:43:00,
2013-09-08 12:48:00,96.9,53.0,29.78,SSE,151,2.0,8.0,23,0.00,,,0.00,WUHU216DAVISVP2,2013-09-08 19:48:00,
2013-09-08 12:53:00,97.2,53.2,29.77,ENE,65,0.0,6.0,23,0.00,,,0.00,WUHU216DAVISVP2,2013-09-08 19:53:00,
2013-09-08 12:58:00,97.5,53.5,29.77,ESE,121,2.0,8.0,23,0.00,,,0.00,WUHU216DAVISVP2,2013-09-08 19:58:00,
2013-09-08 13:03:00,97.4,53.4,29.77,ESE,119,5.0,8.0,23,0.00,,,0.00,WUHU216DAVISVP2,2013-09-08 20:03:00,
2013-09-08 13:08:00,97.5,53.5,29.77,ENE,61,2.0,8.0,23,0.00,,,0.00,WUHU216DAVISVP2,2013-09-08 20:08:00,
2013-09-08 13:13:00,97.6,53.6,29.77,NNE,16,2.0,8.0,23,0.00,,,0.00,WUHU216DAVISVP2,2013-09-08 20:13:00,
2013-09-08 13:18:00,97.6,53.6,29.76,ESE,112,5.0,8.0,23,0.00,,,0.00,WUHU216DAVISVP2,2013-09-08 20:18:00,
2013-09-08 13:23:00,97.7,53.6,29.76,ENE,74,0.0,8.0,23,0.00,,,0.00,WUHU216DAVISVP2,2013-09-08 20:23:00,
2013-09-08 13:28:00,98.2,52.9,29.76,East,96,1.0,7.0,22,0.00,,,0.00,WUHU216DAVISVP2,2013-09-08 20:28:00,
2013-09-08 13:33:00,98.7,53.3,29.76,NNE,28,4.0,7.0,22,0.00,,,0.00,WUHU216DAVISVP2,2013-09-08 20:33:00,
2013-09-08 13:38:00,98.7,54.5,29.75,ENE,68,3.0,10.0,23,0.00,,,0.00,WUHU216DAVISVP2,2013-09-08 20:38:00,
2013-09-08 13:43:00,98.6,54.4,29.75,ENE,73,3.0,10.0,23,0.00,,,0.00,WUHU216DAVISVP2,2013-09-08 20:43:00,
2013-09-08 13:48:00,98.4,54.2,29.75,SE,126,3.0,10.0,23,0.00,,,0.00,WUHU216DAVISVP2,2013-09-08 20:48:00,
2013-09-08 13:53:00,98.8,55.7,29.75,ENE,62,9.0,10.0,24,0.00,,,0.00,WUHU216DAVISVP2,2013-09-08 20:53:00,
2013-09-08 13:58:00,98.9,54.6,29.75,ENE,71,4.0,10.0,23,0.00,,,0.00,WUHU216DAVISVP2,2013-09-08 20:58:00,
2013-09-08 14:04:00,98.7,55.6,29.75,ESE,115,8.0,10.0,24,0.00,,,0.00,WUHU216DAVISVP2,2013-09-08 21:04:00,
2013-09-08 14:10:00,98.3,55.3,29.75,ESE,115,3.0,10.0,24,0.00,,,0.00,WUHU216DAVISVP2,2013-09-08 21:10:00,
2013-09-08 14:15:00,98.0,56.2,29.74,ENE,62,5.0,12.0,25,0.00,,,0.00,WUHU216DAVISVP2,2013-09-08 21:15:00,
2013-09-08 14:21:00,97.8,56.0,29.74,SSE,147,4.0,12.0,25,0.00,,,0.00,WUHU216DAVISVP2,2013-09-08 21:21:00,
2013-09-08 14:27:00,98.3,55.3,29.74,ENE,59,1.0,12.0,24,0.00,,,0.00,WUHU216DAVISVP2,2013-09-08 21:27:00,
2013-09-08 14:32:00,98.5,55.5,29.74,South,174,2.0,12.0,24,0.00,,,0.00,WUHU216DAVISVP2,2013-09-08 21:32:00,
2013-09-08 14:38:00,98.7,54.5,29.73,SSW,193,4.0,7.0,23,0.00,,,0.00,WUHU216DAVISVP2,2013-09-08 21:38:00,
2013-09-08 14:43:00,98.8,55.7,29.73,SE,134,4.0,7.0,24,0.00,,,0.00,WUHU216DAVISVP2,2013-09-08 21:43:00,
2013-09-08 14:49:00,98.8,54.6,29.73,SE,134,6.0,7.0,23,0.00,,,0.00,WUHU216DAVISVP2,2013-09-08 21:49:00,
2013-09-08 14:55:00,99.0,54.7,29.73,WSW,249,0.0,7.0,23,0.00,,,0.00,WUHU216DAVISVP2,2013-09-08 21:55:00,
2013-09-08 15:00:00,99.7,54.1,29.73,East,85,3.0,7.0,22,0.00,,,0.00,WUHU216DAVISVP2,2013-09-08 22:00:00,
2013-09-08 15:06:00,99.8,48.8,29.73,North,360,4.0,7.0,18,0.00,,,0.00,WUHU216DAVISVP2,2013-09-08 22:06:00,
2013-09-08 15:08:00,99.8,50.2,29.73,SE,146,3.0,5.0,19,0.00,,,0.00,WUHU216DAVISVP2,2013-09-08 22:08:00,
2013-09-08 15:17:00,100.4,47.7,29.73,WSW,237,3.0,5.0,17,0.00,,,0.00,WUHU216DAVISVP2,2013-09-08 22:17:00,
2013-09-08 15:23:00,100.5,47.8,29.73,NNE,12,3.0,7.0,17,0.00,,,0.00,WUHU216DAVISVP2,2013-09-08 22:23:00,
2013-09-08 15:29:00,100.9,42.9,29.73,WSW,242,4.0,8.0,14,0.00,,,0.00,WUHU216DAVISVP2,2013-09-08 22:29:00,
2013-09-08 15:35:00,100.7,46.3,29.73,West,260,3.0,8.0,16,0.00,,,0.00,WUHU216DAVISVP2,2013-09-08 22:35:00,
2013-09-08 15:40:00,100.7,44.6,29.72,NNW,344,2.0,8.0,15,0.00,,,0.00,WUHU216DAVISVP2,2013-09-08 22:40:00,
2013-09-08 15:46:00,101.0,43.0,29.72,North,360,7.0,9.0,14,0.00,,,0.00,WUHU216DAVISVP2,2013-09-08 22:46:00,
2013-09-08 15:52:00,100.7,42.7,29.72,SW,223,2.0,9.0,14,0.00,,,0.00,WUHU216DAVISVP2,2013-09-08 22:52:00,
2013-09-08 15:58:00,100.6,42.7,29.72,NE,41,2.0,9.0,14,0.00,,,0.00,WUHU216DAVISVP2,2013-09-08 22:58:00,
2013-09-08 16:02:00,100.5,42.7,29.72,North,355,2.0,9.0,14,0.00,,,0.00,WUHU216DAVISVP2,2013-09-08 23:02:00,
2013-09-08 16:09:00,100.3,44.3,29.72,NNE,13,2.0,8.0,15,0.00,,,0.00,WUHU216DAVISVP2,2013-09-08 23:09:00,
2013-09-08 16:15:00,99.8,43.9,29.72,West,279,3.0,8.0,15,0.00,,,0.00,WUHU216DAVISVP2,2013-09-08 23:15:00,
2013-09-08 16:20:00,99.3,43.5,29.71,North,5,4.0,8.0,15,0.00,,,0.00,WUHU216DAVISVP2,2013-09-08 23:20:00,
2013-09-08 16:26:00,98.9,43.2,29.72,WSW,245,3.0,8.0,15,0.00,,,0.00,WUHU216DAVISVP2,2013-09-08 23:26:00,
2013-09-08 16:32:00,99.0,41.4,29.72,West,274,4.0,8.0,14,0.00,,,0.00,WUHU216DAVISVP2,2013-09-08 23:32:00,
2013-09-08 16:35:00,98.9,41.3,29.71,West,277,5.0,7.0,14,0.00,,,0.00,WUHU216DAVISVP2,2013-09-08 23:35:00,
2013-09-08 16:43:00,98.4,42.8,29.71,WNW,286,2.0,9.0,15,0.00,,,0.00,WUHU216DAVISVP2,2013-09-08 23:43:00,
2013-09-08 16:48:00,97.7,42.2,29.71,North,350,1.0,9.0,15,0.00,,,0.00,WUHU216DAVISVP2,2013-09-08 23:48:00,
2013-09-08 16:54:00,97.6,42.1,29.71,WSW,240,5.0,9.0,15,0.00,,,0.00,WUHU216DAVISVP2,2013-09-08 23:54:00,
2013-09-08 17:00:00,97.8,44.0,29.71,WSW,252,1.0,9.0,16,0.00,,,0.00,WUHU216DAVISVP2,2013-09-09 00:00:00,
2013-09-08 17:30:00,97.2,40.1,29.71,West,270,2.0,6.0,14,0.00,,,0.00,WUHU216DAVISVP2,2013-09-09 00:30:00,
2013-09-08 18:00:00,95.1,40.2,29.71,West,270,2.0,7.0,15,0.00,,,0.00,WUHU216DAVISVP2,2013-09-09 01:00:00,
2013-09-08 18:30:00,93.3,42.0,29.72,West,270,1.0,7.0,17,0.00,,,0.00,WUHU216DAVISVP2,2013-09-09 01:30:00,
2013-09-08 19:00:00,88.5,42.3,29.72,West,270,1.0,5.0,20,0.00,,,0.00,WUHU216DAVISVP2,2013-09-09 02:00:00,
2013-09-08 19:56:00,83.3,46.7,29.73,West,263,0.0,2.0,28,0.00,,,0.00,WUHU216DAVISVP2,2013-09-09 02:56:00,
2013-09-08 20:03:00,82.9,46.3,29.73,WNW,298,0.0,2.0,28,0.00,,,0.00,WUHU216DAVISVP2,2013-09-09 03:03:00,
2013-09-08 20:08:00,82.7,47.1,29.74,WNW,296,0.0,2.0,29,0.00,,,0.00,WUHU216DAVISVP2,2013-09-09 03:08:00,
2013-09-08 20:13:00,82.3,46.7,29.74,WNW,296,0.0,2.0,29,0.00,,,0.00,WUHU216DAVISVP2,2013-09-09 03:13:00,
2013-09-08 20:18:00,82.1,47.5,29.74,WNW,296,0.0,2.0,30,0.00,,,0.00,WUHU216DAVISVP2,2013-09-09 03:18:00,
2013-09-08 20:23:00,81.9,53.7,29.74,WNW,296,0.0,1.0,38,0.00,,,0.00,WUHU216DAVISVP2,2013-09-09 03:23:00,
2013-09-08 20:28:00,81.6,56.3,29.75,ENE,76,0.0,2.0,42,0.00,,,0.00,WUHU216DAVISVP2,2013-09-09 03:28:00,
2013-09-08 20:33:00,81.2,57.2,29.75,SE,129,0.0,3.0,44,0.00,,,0.00,WUHU216DAVISVP2,2013-09-09 03:33:00,
2013-09-08 20:38:00,80.8,57.5,29.74,SE,129,1.0,3.0,45,0.00,,,0.00,WUHU216DAVISVP2,2013-09-09 03:38:00,
2013-09-08 20:43:00,80.4,57.8,29.75,ESE,118,0.0,3.0,46,0.00,,,0.00,WUHU216DAVISVP2,2013-09-09 03:43:00,
2013-09-08 20:48:00,80.2,57.6,29.74,ESE,118,0.0,3.0,46,0.00,,,0.00,WUHU216DAVISVP2,2013-09-09 03:48:00,
2013-09-08 20:53:00,79.6,57.6,29.75,SE,130,2.0,3.0,47,0.00,,,0.00,WUHU216DAVISVP2,2013-09-09 03:53:00,
2013-09-08 20:58:00,79.3,58.0,29.75,ESE,116,1.0,3.0,48,0.00,,,0.00,WUHU216DAVISVP2,2013-09-09 03:58:00,
2013-09-08 21:03:00,78.9,57.6,29.75,ESE,120,3.0,3.0,48,0.00,,,0.00,WUHU216DAVISVP2,2013-09-09 04:03:00,
2013-09-08 21:08:00,78.4,57.7,29.75,ESE,123,0.0,4.0,49,0.00,,,0.00,WUHU216DAVISVP2,2013-09-09 04:08:00,
2013-09-08 21:13:00,78.0,58.0,29.75,ENE,76,0.0,4.0,50,0.00,,,0.00,WUHU216DAVISVP2,2013-09-09 04:13:00,
2013-09-08 21:18:00,77.7,57.6,29.75,ESE,116,1.0,4.0,50,0.00,,,0.00,WUHU216DAVISVP2,2013-09-09 04:18:00,
2013-09-08 21:23:00,77.4,57.4,29.75,ESE,121,1.0,3.0,50,0.00,,,0.00,WUHU216DAVISVP2,2013-09-09 04:23:00,
2013-09-08 21:28:00,77.1,57.6,29.75,ESE,121,0.0,3.0,51,0.00,,,0.00,WUHU216DAVISVP2,2013-09-09 04:28:00,
2013-09-08 21:33:00,76.9,57.5,29.76,ENE,77,0.0,3.0,51,0.00,,,0.00,WUHU216DAVISVP2,2013-09-09 04:33:00,
2013-09-08 21:38:00,76.6,57.8,29.76,ENE,78,0.0,2.0,52,0.00,,,0.00,WUHU216DAVISVP2,2013-09-09 04:38:00,
2013-09-08 21:43:00,76.5,57.7,29.76,ENE,78,0.0,2.0,52,0.00,,,0.00,WUHU216DAVISVP2,2013-09-09 04:43:00,
2013-09-08 21:48:00,76.2,58.0,29.76,ENE,78,1.0,2.0,53,0.00,,,0.00,WUHU216DAVISVP2,2013-09-09 04:48:00,
2013-09-08 21:53:00,76.0,57.8,29.76,ENE,78,0.0,2.0,53,0.00,,,0.00,WUHU216DAVISVP2,2013-09-09 04:53:00,
2013-09-08 21:58:00,75.7,58.0,29.76,ENE,78,0.0,1.0,54,0.00,,,0.00,WUHU216DAVISVP2,2013-09-09 04:58:00,
2013-09-08 22:04:00,75.3,57.7,29.76,ENE,78,0.0,1.0,54,0.00,,,0.00,WUHU216DAVISVP2,2013-09-09 05:04:00,
2013-09-08 22:09:00,75.1,57.5,29.76,ENE,78,1.0,1.0,54,0.00,,,0.00,WUHU216DAVISVP2,2013-09-09 05:09:00,
2013-09-08 22:14:00,75.1,57.3,29.77,ENE,78,1.0,3.0,54,0.00,,,0.00,WUHU216DAVISVP2,2013-09-09 05:14:00,
2013-09-08 22:19:00,75.1,57.5,29.77,East,96,1.0,3.0,54,0.00,,,0.00,WUHU216DAVISVP2,2013-09-09 05:19:00,
2013-09-08 22:24:00,75.1,57.5,29.77,East,96,1.0,3.0,54,0.00,,,0.00,WUHU216DAVISVP2,2013-09-09 05:24:00,
2013-09-08 22:29:00,74.9,57.8,29.77,East,83,0.0,5.0,55,0.00,,,0.00,WUHU216DAVISVP2,2013-09-09 05:29:00,
2013-09-08 22:34:00,74.8,57.5,29.77,SE,134,1.0,5.0,55,0.00,,,0.00,WUHU216DAVISVP2,2013-09-09 05:34:00,
2013-09-08 22:39:00,74.6,57.5,29.77,ESE,108,0.0,5.0,55,0.00,,,0.00,WUHU216DAVISVP2,2013-09-09 05:39:00,
2013-09-08 22:44:00,74.4,57.3,29.77,East,90,0.0,4.0,55,0.00,,,0.00,WUHU216DAVISVP2,2013-09-09 05:44:00,
2013-09-08 22:49:00,74.2,57.1,29.77,East,90,0.0,4.0,55,0.00,,,0.00,WUHU216DAVISVP2,2013-09-09 05:49:00,
2013-09-08 22:54:00,74.0,57.0,29.77,East,89,1.0,4.0,55,0.00,,,0.00,WUHU216DAVISVP2,2013-09-09 05:54:00,
2013-09-08 22:59:00,73.8,56.8,29.78,East,85,1.0,3.0,55,0.00,,,0.00,WUHU216DAVISVP2,2013-09-09 05:59:00,
2013-09-08 23:04:00,73.7,56.7,29.77,SE,134,0.0,3.0,55,0.00,,,0.00,WUHU216DAVISVP2,2013-09-09 06:04:00,
2013-09-08 23:09:00,73.5,56.5,29.77,SE,134,1.0,2.0,55,0.00,,,0.00,WUHU216DAVISVP2,2013-09-09 06:09:00,
2013-09-08 23:14:00,73.0,56.0,29.77,South,188,0.0,3.0,55,0.00,,,0.00,WUHU216DAVISVP2,2013-09-09 06:14:00,
2013-09-08 23:19:00,72.7,56.3,29.77,South,188,0.0,3.0,56,0.00,,,0.00,WUHU216DAVISVP2,2013-09-09 06:19:00,
2013-09-08 23:24:00,72.4,56.5,29.76,WSW,248,1.0,3.0,57,0.00,,,0.00,WUHU216DAVISVP2,2013-09-09 06:24:00,
2013-09-08 23:29:00,72.3,56.7,29.76,WSW,241,0.0,3.0,58,0.00,,,0.00,WUHU216DAVISVP2,2013-09-09 06:29:00,
2013-09-08 23:34:00,72.1,57.0,29.76,WSW,241,0.0,3.0,59,0.00,,,0.00,WUHU216DAVISVP2,2013-09-09 06:34:00,
2013-09-08 23:39:00,71.9,57.4,29.76,WSW,241,0.0,3.0,60,0.00,,,0.00,WUHU216DAVISVP2,2013-09-09 06:39:00,
2013-09-08 23:44:00,71.7,57.3,29.76,WSW,241,0.0,3.0,60,0.00,,,0.00,WUHU216DAVISVP2,2013-09-09 06:44:00,
2013-09-08 23:49:00,71.5,57.5,29.76,WSW,241,0.0,2.0,61,0.00,,,0.00,WUHU216DAVISVP2,2013-09-09 06:49:00,
2013-09-08 23:54:00,71.5,57.5,29.76,WSW,241,0.0,2.0,61,0.00,,,0.00,WUHU216DAVISVP2,2013-09-09 06:54:00,
2013-09-08 23:59:00,71.6,57.6,29.76,WSW,241,1.0,1.0,61,0.00,,,0.00,WUHU216DAVISVP2,2013-09-09 06:59:00,